createdAt,value
2022-10-11T00:01:20.151Z,77.46
2022-10-11T00:04:23.273Z,77.60
2022-10-11T00:07:25.922Z,77.87
2022-10-11T00:10:28.899Z,78.29
2022-10-11T00:13:31.332Z,77.95
2022-10-11T00:16:34.502Z,78.30
2022-10-11T00:19:37.244Z,78.03
2022-10-11T00:22:41.016Z,77.79
2022-10-11T00:25:43.584Z,77.27
2022-10-11T00:28:46.440Z,77.16
2022-10-11T00:31:49.004Z,77.32
2022-10-11T00:34:51.857Z,77.57
2022-10-11T00:37:56.266Z,77.89
2022-10-11T00:41:00.329Z,78.08
2022-10-11T00:44:24.350Z,78.21
2022-10-11T00:47:27.270Z,78.35
2022-10-11T00:50:31.820Z,78.87
2022-10-11T00:53:34.819Z,79.21
2022-10-11T00:56:39.228Z,79.50
2022-10-11T00:59:45.084Z,79.78
2022-10-11T01:02:47.619Z,79.76
2022-10-11T01:05:50.662Z,79.83
2022-10-11T01:08:53.364Z,79.76
2022-10-11T01:11:58.358Z,79.86
2022-10-11T01:15:26.065Z,80.10
2022-10-11T01:18:35.817Z,80.07
2022-10-11T01:21:57.906Z,80.35
2022-10-11T01:25:03.630Z,80.44
2022-10-11T01:28:24.432Z,80.58
2022-10-11T01:31:33.199Z,80.58
2022-10-11T01:34:44.479Z,80.79
2022-10-11T01:37:54.045Z,81.14
2022-10-11T01:41:00.099Z,81.07
2022-10-11T01:44:03.304Z,80.89
2022-10-11T01:47:05.903Z,80.87
2022-10-11T01:50:49.872Z,81.11
2022-10-11T01:54:04.587Z,81.21
2022-10-11T01:57:16.626Z,81.29
2022-10-11T02:00:22.967Z,81.11
2022-10-11T02:03:36.354Z,81.21
2022-10-11T02:06:46.987Z,81.52
2022-10-11T02:10:07.324Z,81.55
2022-10-11T02:13:15.465Z,81.75
2022-10-11T02:16:20.688Z,82.07
2022-10-11T02:19:29.257Z,82.29
2022-10-11T02:22:35.832Z,82.66
2022-10-11T02:25:38.971Z,82.87
2022-10-11T02:28:43.233Z,82.74
2022-10-11T02:31:46.244Z,82.64
2022-10-11T02:34:53.881Z,82.74
2022-10-11T02:37:58.677Z,83.00
2022-10-11T02:41:08.862Z,82.77
2022-10-11T02:44:16.405Z,83.08
2022-10-11T02:47:19.225Z,83.40
2022-10-11T02:50:22.994Z,83.37
2022-10-11T02:53:26.995Z,83.50
2022-10-11T02:56:29.566Z,83.49
2022-10-11T02:59:32.575Z,83.83
2022-10-11T03:02:35.399Z,84.08
2022-10-11T03:05:41.538Z,84.00
2022-10-11T03:08:44.148Z,84.00
2022-10-11T03:11:46.908Z,84.40
2022-10-11T03:14:49.380Z,84.36
2022-10-11T03:17:52.242Z,84.35
2022-10-11T03:20:54.883Z,84.49
2022-10-11T03:23:57.790Z,84.86
2022-10-11T03:27:00.247Z,84.92
2022-10-11T03:30:04.207Z,84.73
2022-10-11T03:33:08.095Z,84.65
2022-10-11T03:36:10.834Z,84.24
2022-10-11T03:39:13.348Z,83.73
2022-10-11T03:42:16.891Z,83.63
2022-10-11T03:45:19.603Z,83.34
2022-10-11T03:48:22.544Z,83.24
2022-10-11T03:51:25.110Z,83.37
2022-10-11T03:54:27.981Z,83.16
2022-10-11T03:57:30.581Z,83.14
2022-10-11T04:00:34.199Z,82.74
2022-10-11T04:03:37.281Z,82.59
2022-10-11T04:06:39.837Z,83.33
2022-10-11T04:09:43.263Z,83.06
2022-10-11T04:12:46.235Z,82.92
2022-10-11T04:15:49.024Z,83.41
2022-10-11T04:18:51.559Z,83.62
2022-10-11T04:21:54.346Z,83.58
2022-10-11T04:24:57.069Z,83.51
2022-10-11T04:27:59.981Z,84.01
2022-10-11T04:31:04.289Z,84.76
2022-10-11T04:34:07.262Z,85.27
2022-10-11T04:37:09.928Z,85.18
2022-10-11T04:40:13.292Z,84.82
2022-10-11T04:43:16.816Z,85.10
2022-10-11T04:46:19.780Z,85.05
2022-10-11T04:49:22.650Z,85.08
2022-10-11T04:52:26.154Z,85.45
2022-10-11T04:55:29.352Z,86.49
2022-10-11T04:58:33.520Z,86.80
2022-10-11T05:01:36.083Z,86.87
2022-10-11T05:04:39.314Z,87.15
2022-10-11T05:07:42.048Z,87.82
2022-10-11T05:10:56.722Z,88.10
2022-10-11T05:13:59.401Z,87.15
2022-10-11T05:17:02.647Z,86.46
2022-10-11T05:20:06.010Z,86.40
2022-10-11T05:23:08.875Z,83.98
2022-10-11T05:26:11.649Z,84.01
2022-10-11T05:29:14.394Z,84.27
2022-10-11T05:32:16.862Z,84.71
2022-10-11T05:35:19.684Z,85.29
2022-10-11T05:38:22.870Z,85.94
2022-10-11T05:41:25.575Z,82.98
2022-10-11T05:44:28.138Z,83.67
2022-10-11T05:47:31.042Z,84.15
2022-10-11T05:50:33.775Z,84.61
2022-10-11T05:53:37.756Z,84.77
2022-10-11T05:56:40.327Z,85.22
2022-10-11T05:59:43.233Z,85.33
2022-10-11T06:02:45.759Z,85.44
2022-10-11T06:05:51.214Z,85.76
2022-10-11T06:08:55.832Z,85.89
2022-10-11T06:11:58.718Z,86.25
2022-10-11T06:15:01.183Z,86.33
2022-10-11T06:18:05.356Z,86.81
2022-10-11T06:21:07.818Z,87.11
2022-10-11T06:24:10.722Z,86.41
2022-10-11T06:27:13.246Z,86.31
2022-10-11T06:30:16.168Z,86.97
2022-10-11T06:33:18.974Z,86.99
2022-10-11T06:36:21.838Z,86.03
2022-10-11T06:39:24.544Z,85.38
2022-10-11T06:42:27.360Z,85.50
2022-10-11T06:45:30.195Z,84.91
2022-10-11T06:48:34.916Z,84.54
2022-10-11T06:51:37.369Z,83.73
2022-10-11T06:54:44.592Z,81.74
2022-10-11T06:57:47.354Z,82.34
2022-10-11T07:00:50.212Z,82.11
2022-10-11T07:03:54.351Z,82.32
2022-10-11T07:06:57.173Z,81.85
2022-10-11T07:09:59.785Z,82.05
2022-10-11T07:13:04.765Z,80.95
2022-10-11T07:16:10.379Z,81.31
2022-10-11T07:19:13.187Z,80.79
2022-10-11T07:22:15.760Z,80.86
2022-10-11T07:25:18.525Z,80.60
2022-10-11T07:28:22.273Z,80.11
2022-10-11T07:31:25.887Z,78.89
2022-10-11T07:34:28.471Z,78.72
2022-10-11T07:37:31.262Z,78.58
2022-10-11T07:40:42.914Z,77.05
2022-10-11T07:43:47.880Z,77.34
2022-10-11T07:46:50.389Z,77.11
2022-10-11T07:49:53.193Z,74.49
2022-10-11T07:52:55.586Z,74.71
2022-10-11T07:56:02.333Z,75.11
2022-10-11T07:59:05.460Z,76.00
2022-10-11T08:02:13.752Z,76.88
2022-10-11T08:05:16.663Z,75.60
2022-10-11T08:08:19.568Z,76.89
2022-10-11T08:11:24.651Z,75.91
2022-10-11T08:14:27.128Z,76.45
2022-10-11T08:17:29.822Z,75.54
2022-10-11T08:20:33.228Z,75.23
2022-10-11T08:23:36.172Z,75.54
2022-10-11T08:26:38.709Z,74.60
2022-10-11T08:29:41.498Z,74.27
2022-10-11T08:32:43.977Z,73.58
2022-10-11T08:35:47.294Z,73.33
2022-10-11T08:38:50.594Z,72.36
2022-10-11T08:41:55.847Z,72.19
2022-10-11T08:45:11.111Z,72.37
2022-10-11T08:48:19.126Z,71.15
2022-10-11T08:51:27.742Z,70.14
2022-10-11T08:54:39.809Z,69.68
2022-10-11T08:57:45.644Z,68.74
2022-10-11T09:00:52.538Z,67.33
2022-10-11T09:03:55.346Z,67.46
2022-10-11T09:07:16.695Z,66.16
2022-10-11T09:10:40.740Z,66.24
2022-10-11T09:13:59.776Z,64.56
2022-10-11T09:17:02.166Z,63.02
2022-10-11T09:20:16.769Z,61.97
2022-10-11T09:23:56.670Z,62.39
2022-10-11T09:27:13.157Z,62.18
2022-10-11T09:30:18.403Z,61.38
2022-10-11T09:33:32.352Z,58.21
2022-10-11T09:36:42.042Z,58.87
2022-10-11T09:39:51.406Z,57.32
2022-10-11T09:42:53.862Z,57.63
2022-10-11T09:45:56.818Z,58.35
2022-10-11T09:49:02.428Z,58.40
2022-10-11T09:52:09.809Z,60.12
2022-10-11T09:55:41.548Z,60.59
2022-10-11T09:58:44.384Z,62.42
2022-10-11T10:01:47.041Z,64.08
2022-10-11T10:05:14.814Z,62.89
2022-10-11T10:08:23.428Z,63.95
2022-10-11T10:11:28.723Z,63.84
2022-10-11T10:14:31.197Z,63.21
2022-10-11T10:17:34.623Z,62.42
2022-10-11T10:20:38.008Z,61.20
2022-10-11T10:23:42.263Z,57.84
2022-10-11T10:27:04.683Z,54.23
2022-10-11T10:30:07.397Z,53.49
2022-10-11T10:33:11.631Z,51.79
2022-10-11T10:36:19.260Z,50.90
2022-10-11T10:39:32.507Z,49.92
2022-10-11T10:42:35.304Z,48.58
2022-10-11T10:45:50.067Z,49.09
2022-10-11T10:49:34.514Z,48.25
2022-10-11T10:52:53.081Z,47.62
2022-10-11T10:56:17.531Z,47.01
2022-10-11T10:59:37.147Z,46.61
2022-10-11T11:03:02.053Z,45.67
2022-10-11T11:06:08.196Z,45.75
2022-10-11T11:10:02.789Z,46.16
2022-10-11T11:13:17.102Z,46.78
2022-10-11T11:16:24.146Z,46.68
2022-10-11T11:19:53.949Z,48.36
2022-10-11T11:23:10.324Z,48.73
2022-10-11T11:26:24.174Z,46.76
2022-10-11T11:29:43.621Z,44.62
2022-10-11T11:33:12.141Z,44.31
2022-10-11T11:36:20.841Z,45.67
2022-10-11T11:39:50.561Z,47.92
2022-10-11T11:43:00.815Z,48.88
2022-10-11T11:46:09.638Z,49.19
2022-10-11T11:49:28.720Z,51.13
2022-10-11T11:52:39.097Z,51.21
2022-10-11T11:55:49.291Z,50.56
2022-10-11T11:58:54.956Z,49.50
2022-10-11T12:02:18.927Z,48.85
2022-10-11T12:05:25.298Z,48.39
2022-10-11T12:08:32.128Z,50.08
2022-10-11T12:11:37.983Z,49.72
2022-10-11T12:14:41.179Z,49.16
2022-10-11T12:17:53.148Z,47.94
2022-10-11T12:21:08.286Z,47.39
2022-10-11T12:24:20.481Z,45.72
2022-10-11T12:27:37.487Z,45.84
2022-10-11T12:30:47.064Z,47.09
2022-10-11T12:33:53.947Z,47.99
2022-10-11T12:36:56.735Z,47.03
2022-10-11T12:39:59.789Z,47.47
2022-10-11T12:43:24.487Z,46.07
2022-10-11T12:46:31.111Z,45.66
2022-10-11T12:49:42.962Z,46.32
2022-10-11T12:53:03.547Z,46.00
2022-10-11T12:56:15.437Z,47.94
2022-10-11T12:59:22.451Z,47.16
2022-10-11T13:02:52.073Z,47.13
2022-10-11T13:06:00.438Z,48.40
2022-10-11T13:09:21.125Z,48.25
2022-10-11T13:12:24.244Z,47.90
2022-10-11T13:15:28.731Z,48.74
2022-10-11T13:18:31.387Z,49.53
2022-10-11T13:21:36.776Z,50.37
2022-10-11T13:24:40.601Z,50.75
2022-10-11T13:27:43.671Z,49.94
2022-10-11T13:30:57.363Z,49.94
2022-10-11T13:34:00.159Z,51.32
2022-10-11T13:37:03.002Z,51.44
2022-10-11T13:40:06.729Z,51.38
2022-10-11T13:43:09.505Z,52.32
2022-10-11T13:46:21.162Z,52.98
2022-10-11T13:49:37.082Z,53.20
2022-10-11T13:52:58.122Z,54.46
2022-10-11T13:56:04.361Z,56.03
2022-10-11T13:59:07.362Z,55.80
2022-10-11T14:02:21.683Z,55.90
2022-10-11T14:05:40.341Z,57.21
2022-10-11T14:08:48.344Z,57.43
2022-10-11T14:11:51.210Z,59.46
2022-10-11T14:14:53.762Z,56.71
2022-10-11T14:17:57.397Z,59.04
2022-10-11T14:21:27.932Z,59.88
2022-10-11T14:24:30.727Z,61.55
2022-10-11T14:27:33.342Z,60.82
2022-10-11T14:30:36.251Z,62.22
2022-10-11T14:33:38.876Z,61.81
2022-10-11T14:36:41.651Z,63.93
2022-10-11T14:39:46.103Z,64.09
2022-10-11T14:42:49.310Z,65.38
2022-10-11T14:45:51.894Z,64.26
2022-10-11T14:48:56.596Z,63.95
2022-10-11T14:51:59.546Z,63.43
2022-10-11T14:55:02.332Z,65.15
2022-10-11T14:58:06.429Z,66.42
2022-10-11T15:01:14.086Z,67.04
2022-10-11T15:04:17.798Z,68.33
2022-10-11T15:07:20.549Z,68.67
2022-10-11T15:10:29.667Z,71.00
2022-10-11T15:13:33.113Z,72.11
2022-10-11T15:16:36.242Z,73.64
2022-10-11T15:19:39.755Z,74.37
2022-10-11T15:22:43.706Z,76.16
2022-10-11T15:25:46.545Z,77.27
2022-10-11T15:28:50.030Z,77.76
2022-10-11T15:31:52.966Z,78.18
2022-10-11T15:34:55.510Z,77.93
2022-10-11T15:37:59.506Z,77.86
2022-10-11T15:41:02.056Z,77.64
2022-10-11T15:44:05.088Z,77.35
2022-10-11T15:47:07.550Z,77.10
2022-10-11T15:50:18.983Z,76.69
2022-10-11T15:53:24.828Z,76.75
2022-10-11T15:56:32.913Z,77.33
2022-10-11T15:59:37.285Z,78.25
2022-10-11T16:02:40.158Z,78.77
2022-10-11T16:05:43.609Z,78.86
2022-10-11T16:08:46.163Z,79.01
2022-10-11T16:11:49.031Z,80.27
2022-10-11T16:14:51.644Z,80.56
2022-10-11T16:17:54.699Z,81.30
2022-10-11T16:20:57.719Z,81.70
2022-10-11T16:24:00.574Z,81.79
2022-10-11T16:27:03.208Z,82.34
2022-10-11T16:30:06.472Z,82.44
2022-10-11T16:33:09.603Z,79.56
2022-10-11T16:36:35.995Z,80.92
2022-10-11T16:39:39.583Z,81.12
2022-10-11T16:42:42.399Z,81.41
2022-10-11T16:45:44.918Z,81.77
2022-10-11T16:48:48.122Z,82.10
2022-10-11T16:51:52.099Z,81.99
2022-10-11T16:54:55.177Z,82.40
2022-10-11T16:57:57.639Z,82.67
2022-10-11T17:01:03.653Z,82.72
2022-10-11T17:04:06.203Z,82.57
2022-10-11T17:07:12.459Z,82.87
2022-10-11T17:10:15.063Z,81.67
2022-10-11T17:13:17.960Z,80.36
2022-10-11T17:16:21.768Z,79.73
2022-10-11T17:19:24.613Z,80.54
2022-10-11T17:22:29.560Z,81.15
2022-10-11T17:25:32.577Z,81.32
2022-10-11T17:28:36.077Z,81.53
2022-10-11T17:31:39.163Z,81.57
2022-10-11T17:34:41.837Z,81.60
2022-10-11T17:37:44.827Z,81.60
2022-10-11T17:40:47.909Z,81.59
2022-10-11T17:43:50.927Z,81.96
2022-10-11T17:46:53.435Z,81.73
2022-10-11T17:49:56.402Z,81.88
2022-10-11T17:52:59.471Z,82.04
2022-10-11T17:56:07.813Z,82.07
2022-10-11T17:59:17.003Z,82.50
2022-10-11T18:02:19.996Z,83.05
2022-10-11T18:05:22.818Z,83.05
2022-10-11T18:08:25.556Z,83.28
2022-10-11T18:11:29.151Z,83.63
2022-10-11T18:14:31.729Z,83.75
2022-10-11T18:17:34.545Z,84.27
2022-10-11T18:20:37.539Z,84.54
2022-10-11T18:23:41.047Z,85.46
2022-10-11T18:26:47.035Z,86.04
2022-10-11T18:29:49.875Z,86.44
2022-10-11T18:32:52.470Z,86.64
2022-10-11T18:36:04.791Z,86.83
2022-10-11T18:39:13.967Z,87.21
2022-10-11T18:42:17.980Z,87.78
2022-10-11T18:45:21.071Z,87.84
2022-10-11T18:48:23.996Z,88.25
2022-10-11T18:51:29.415Z,88.55
2022-10-11T18:54:32.166Z,88.81
2022-10-11T18:57:34.968Z,88.67
2022-10-11T19:00:41.054Z,88.54
2022-10-11T19:03:45.800Z,88.99
2022-10-11T19:06:49.039Z,89.31
2022-10-11T19:09:51.782Z,89.31
2022-10-11T19:12:54.739Z,89.35
2022-10-11T19:16:06.551Z,89.30
2022-10-11T19:19:11.819Z,89.33
2022-10-11T19:22:14.459Z,89.32
2022-10-11T19:25:17.419Z,89.53
2022-10-11T19:28:21.430Z,89.98
2022-10-11T19:31:24.860Z,90.04
2022-10-11T19:34:28.894Z,89.91
2022-10-11T19:37:31.969Z,90.05
2022-10-11T19:40:38.044Z,90.47
2022-10-11T19:43:41.050Z,90.99
2022-10-11T19:46:51.481Z,91.36
2022-10-11T19:49:55.444Z,91.91
2022-10-11T19:52:57.990Z,91.96
2022-10-11T19:56:09.391Z,92.49
2022-10-11T19:59:13.139Z,93.04
2022-10-11T20:02:16.667Z,93.28
2022-10-11T20:05:19.495Z,93.55
2022-10-11T20:08:23.314Z,93.72
2022-10-11T20:11:26.214Z,93.66
2022-10-11T20:14:28.744Z,93.14
2022-10-11T20:17:50.134Z,93.26
2022-10-11T20:21:01.267Z,93.84
2022-10-11T20:24:04.663Z,93.79
2022-10-11T20:27:07.202Z,93.11
2022-10-11T20:30:10.917Z,92.53
2022-10-11T20:33:13.626Z,92.31
2022-10-11T20:36:18.673Z,92.02
2022-10-11T20:39:21.878Z,91.07
2022-10-11T20:42:28.963Z,91.08
2022-10-11T20:45:32.237Z,91.17
2022-10-11T20:48:36.093Z,91.23
2022-10-11T20:51:41.501Z,91.38
2022-10-11T20:54:44.471Z,91.52
2022-10-11T20:57:46.922Z,91.91
2022-10-11T21:00:49.826Z,92.25
2022-10-11T21:03:52.462Z,92.83
2022-10-11T21:06:55.301Z,92.63
2022-10-11T21:09:58.159Z,92.07
2022-10-11T21:13:01.439Z,91.75
2022-10-11T21:16:11.212Z,91.57
2022-10-11T21:19:15.366Z,91.91
2022-10-11T21:22:17.848Z,92.72
2022-10-11T21:25:20.944Z,93.09
2022-10-11T21:28:23.672Z,92.97
2022-10-11T21:31:29.730Z,92.56
2022-10-11T21:34:36.156Z,92.56
2022-10-11T21:37:39.031Z,92.91
2022-10-11T21:40:41.748Z,93.03
2022-10-11T21:43:45.248Z,92.94
2022-10-11T21:47:06.099Z,92.71
2022-10-11T21:50:10.249Z,92.82
2022-10-11T21:53:12.750Z,93.05
2022-10-11T21:56:15.905Z,92.95
2022-10-11T21:59:18.387Z,92.98
2022-10-11T22:02:21.220Z,92.81
2022-10-11T22:05:24.463Z,92.86
2022-10-11T22:08:26.952Z,92.72
2022-10-11T22:11:29.816Z,92.66
2022-10-11T22:14:32.494Z,92.14
2022-10-11T22:17:35.321Z,92.05
2022-10-11T22:20:37.899Z,92.46
2022-10-11T22:23:43.012Z,92.58
2022-10-11T22:26:45.551Z,92.55
2022-10-11T22:29:48.472Z,92.65
2022-10-11T22:32:51.771Z,92.42
2022-10-11T22:35:56.012Z,91.66
2022-10-11T22:38:59.673Z,91.38
2022-10-11T22:42:02.592Z,92.15
2022-10-11T22:45:05.483Z,92.05
2022-10-11T22:48:08.699Z,92.12
2022-10-11T22:51:11.318Z,92.07
2022-10-11T22:54:14.103Z,92.05
2022-10-11T22:57:16.639Z,92.49
2022-10-11T23:00:21.315Z,93.23
2022-10-11T23:03:24.122Z,93.14
2022-10-11T23:06:27.118Z,93.06
2022-10-11T23:09:31.045Z,93.22
2022-10-11T23:12:34.026Z,93.13
2022-10-11T23:15:40.480Z,93.36
2022-10-11T23:18:43.510Z,93.64
2022-10-11T23:21:46.651Z,93.95
2022-10-11T23:24:49.474Z,94.29
2022-10-11T23:27:52.050Z,94.44
2022-10-11T23:30:54.834Z,95.06
2022-10-11T23:33:57.624Z,95.62
2022-10-11T23:37:01.607Z,96.16
2022-10-11T23:40:04.761Z,96.54
2022-10-11T23:43:07.600Z,96.73
2022-10-11T23:46:10.138Z,96.85
2022-10-11T23:49:13.356Z,97.10
2022-10-11T23:52:16.114Z,97.35
2022-10-11T23:55:19.171Z,97.59
2022-10-11T23:58:21.829Z,97.65
